sensor_id;sensor_type;location;lat;lon;timestamp;temperature;humidity
5621;DHT22;2832;50.864;12.186;2023-11-19T00:01:08;9.80;99.90
5621;DHT22;2832;50.864;12.186;2023-11-19T00:03:36;9.80;99.90
5621;DHT22;2832;50.864;12.186;2023-11-19T00:06:04;9.80;99.90
5621;DHT22;2832;50.864;12.186;2023-11-19T00:08:32;9.80;99.90
5621;DHT22;2832;50.864;12.186;2023-11-19T00:11:04;9.80;99.90
5621;DHT22;2832;50.864;12.186;2023-11-19T00:13:33;9.80;99.90
5621;DHT22;2832;50.864;12.186;2023-11-19T00:16:02;9.80;99.90
5621;DHT22;2832;50.864;12.186;2023-11-19T00:18:33;9.80;99.90
5621;DHT22;2832;50.864;12.186;2023-11-19T00:21:06;9.80;99.90
5621;DHT22;2832;50.864;12.186;2023-11-19T00:23:34;9.70;99.90
5621;DHT22;2832;50.864;12.186;2023-11-19T00:26:06;9.70;99.90
5621;DHT22;2832;50.864;12.186;2023-11-19T00:28:34;9.80;99.90
5621;DHT22;2832;50.864;12.186;2023-11-19T00:31:05;9.70;99.90
5621;DHT22;2832;50.864;12.186;2023-11-19T00:33:32;9.70;99.90
5621;DHT22;2832;50.864;12.186;2023-11-19T00:36:00;9.70;99.90
5621;DHT22;2832;50.864;12.186;2023-11-19T00:38:29;9.70;99.90
5621;DHT22;2832;50.864;12.186;2023-11-19T00:40:59;9.70;99.90
5621;DHT22;2832;50.864;12.186;2023-11-19T00:43:31;9.70;99.90
5621;DHT22;2832;50.864;12.186;2023-11-19T00:45:58;9.70;99.90
5621;DHT22;2832;50.864;12.186;2023-11-19T00:48:31;9.80;99.90
5621;DHT22;2832;50.864;12.186;2023-11-19T00:50:59;9.70;99.90
5621;DHT22;2832;50.864;12.186;2023-11-19T00:53:27;9.70;99.90
5621;DHT22;2832;50.864;12.186;2023-11-19T00:55:53;9.70;99.90
5621;DHT22;2832;50.864;12.186;2023-11-19T00:58:23;9.70;99.90
5621;DHT22;2832;50.864;12.186;2023-11-19T01:00:52;9.70;99.90
5621;DHT22;2832;50.864;12.186;2023-11-19T01:03:23;9.70;99.90
5621;DHT22;2832;50.864;12.186;2023-11-19T01:05:51;9.60;99.90
5621;DHT22;2832;50.864;12.186;2023-11-19T01:08:20;9.70;99.90
5621;DHT22;2832;50.864;12.186;2023-11-19T01:10:47;9.60;99.90
5621;DHT22;2832;50.864;12.186;2023-11-19T01:13:15;9.70;99.90
5621;DHT22;2832;50.864;12.186;2023-11-19T01:15:43;9.70;99.90
5621;DHT22;2832;50.864;12.186;2023-11-19T01:18:12;9.60;99.90
5621;DHT22;2832;50.864;12.186;2023-11-19T01:20:43;9.70;99.90
5621;DHT22;2832;50.864;12.186;2023-11-19T01:23:11;9.60;99.90
5621;DHT22;2832;50.864;12.186;2023-11-19T01:25:41;9.60;99.90
5621;DHT22;2832;50.864;12.186;2023-11-19T01:28:08;9.60;99.90
5621;DHT22;2832;50.864;12.186;2023-11-19T01:30:40;9.60;99.90
5621;DHT22;2832;50.864;12.186;2023-11-19T01:33:08;9.60;99.90
5621;DHT22;2832;50.864;12.186;2023-11-19T01:35:37;9.60;99.90
5621;DHT22;2832;50.864;12.186;2023-11-19T01:38:08;9.60;99.90
5621;DHT22;2832;50.864;12.186;2023-11-19T01:40:35;9.60;99.90
5621;DHT22;2832;50.864;12.186;2023-11-19T01:43:03;9.70;99.90
5621;DHT22;2832;50.864;12.186;2023-11-19T01:45:31;9.70;99.90
5621;DHT22;2832;50.864;12.186;2023-11-19T01:48:02;9.70;99.90
5621;DHT22;2832;50.864;12.186;2023-11-19T01:50:32;9.70;99.90
5621;DHT22;2832;50.864;12.186;2023-11-19T01:53:03;9.60;99.90
5621;DHT22;2832;50.864;12.186;2023-11-19T01:55:31;9.60;99.90
5621;DHT22;2832;50.864;12.186;2023-11-19T01:58:01;9.60;99.90
5621;DHT22;2832;50.864;12.186;2023-11-19T02:00:31;9.60;99.90
5621;DHT22;2832;50.864;12.186;2023-11-19T02:03:00;9.50;99.90
5621;DHT22;2832;50.864;12.186;2023-11-19T02:05:30;9.50;99.90
5621;DHT22;2832;50.864;12.186;2023-11-19T02:07:59;9.50;99.90
5621;DHT22;2832;50.864;12.186;2023-11-19T02:10:31;9.50;99.90
5621;DHT22;2832;50.864;12.186;2023-11-19T02:13:00;9.60;99.90
5621;DHT22;2832;50.864;12.186;2023-11-19T02:15:29;9.50;99.90
5621;DHT22;2832;50.864;12.186;2023-11-19T02:17:59;9.60;99.90
5621;DHT22;2832;50.864;12.186;2023-11-19T02:20:44;9.50;99.90
5621;DHT22;2832;50.864;12.186;2023-11-19T02:23:13;9.50;99.90
5621;DHT22;2832;50.864;12.186;2023-11-19T02:25:47;9.50;99.90
5621;DHT22;2832;50.864;12.186;2023-11-19T02:28:20;9.50;99.90
5621;DHT22;2832;50.864;12.186;2023-11-19T02:30:48;9.50;99.90
5621;DHT22;2832;50.864;12.186;2023-11-19T02:33:15;9.50;99.90
5621;DHT22;2832;50.864;12.186;2023-11-19T02:35:46;9.50;99.90
5621;DHT22;2832;50.864;12.186;2023-11-19T02:38:14;9.50;99.90
5621;DHT22;2832;50.864;12.186;2023-11-19T02:40:43;9.50;99.90
5621;DHT22;2832;50.864;12.186;2023-11-19T02:43:10;9.50;99.90
5621;DHT22;2832;50.864;12.186;2023-11-19T02:45:40;9.50;99.90
5621;DHT22;2832;50.864;12.186;2023-11-19T02:48:11;9.50;99.90
5621;DHT22;2832;50.864;12.186;2023-11-19T02:50:43;9.50;99.90
5621;DHT22;2832;50.864;12.186;2023-11-19T02:53:12;9.50;99.90
5621;DHT22;2832;50.864;12.186;2023-11-19T02:55:40;9.50;99.90
5621;DHT22;2832;50.864;12.186;2023-11-19T02:58:16;9.50;99.90
5621;DHT22;2832;50.864;12.186;2023-11-19T03:00:51;9.50;99.90
5621;DHT22;2832;50.864;12.186;2023-11-19T03:03:24;9.50;99.90
5621;DHT22;2832;50.864;12.186;2023-11-19T03:05:55;9.40;99.90
5621;DHT22;2832;50.864;12.186;2023-11-19T03:08:23;9.40;99.90
5621;DHT22;2832;50.864;12.186;2023-11-19T03:10:51;9.40;99.90
5621;DHT22;2832;50.864;12.186;2023-11-19T03:13:19;9.40;99.90
5621;DHT22;2832;50.864;12.186;2023-11-19T03:15:48;9.40;99.90
5621;DHT22;2832;50.864;12.186;2023-11-19T03:18:18;9.40;99.90
5621;DHT22;2832;50.864;12.186;2023-11-19T03:20:48;9.40;99.90
5621;DHT22;2832;50.864;12.186;2023-11-19T03:23:20;9.40;99.90
5621;DHT22;2832;50.864;12.186;2023-11-19T03:25:48;9.40;99.90
5621;DHT22;2832;50.864;12.186;2023-11-19T03:28:16;9.40;99.90
5621;DHT22;2832;50.864;12.186;2023-11-19T03:30:44;9.40;99.90
5621;DHT22;2832;50.864;12.186;2023-11-19T03:33:12;9.40;99.90
5621;DHT22;2832;50.864;12.186;2023-11-19T03:35:41;9.40;99.90
5621;DHT22;2832;50.864;12.186;2023-11-19T03:38:08;9.40;99.90
5621;DHT22;2832;50.864;12.186;2023-11-19T03:40:36;9.40;99.90
5621;DHT22;2832;50.864;12.186;2023-11-19T03:43:05;9.40;99.90
5621;DHT22;2832;50.864;12.186;2023-11-19T03:45:33;9.40;99.90
5621;DHT22;2832;50.864;12.186;2023-11-19T03:48:06;9.40;99.90
5621;DHT22;2832;50.864;12.186;2023-11-19T03:50:34;9.40;99.90
5621;DHT22;2832;50.864;12.186;2023-11-19T03:53:06;9.40;99.90
5621;DHT22;2832;50.864;12.186;2023-11-19T03:55:34;9.40;99.90
5621;DHT22;2832;50.864;12.186;2023-11-19T03:58:01;9.40;99.90
5621;DHT22;2832;50.864;12.186;2023-11-19T04:00:32;9.40;99.90
5621;DHT22;2832;50.864;12.186;2023-11-19T04:03:00;9.40;99.90
5621;DHT22;2832;50.864;12.186;2023-11-19T04:05:28;9.40;99.90
5621;DHT22;2832;50.864;12.186;2023-11-19T04:07:56;9.40;99.90
5621;DHT22;2832;50.864;12.186;2023-11-19T04:10:27;9.40;99.90
5621;DHT22;2832;50.864;12.186;2023-11-19T04:13:08;9.40;99.90
5621;DHT22;2832;50.864;12.186;2023-11-19T04:15:35;9.40;99.90
5621;DHT22;2832;50.864;12.186;2023-11-19T04:18:03;9.30;99.90
5621;DHT22;2832;50.864;12.186;2023-11-19T04:20:31;9.30;99.90
5621;DHT22;2832;50.864;12.186;2023-11-19T04:22:59;9.30;99.90
5621;DHT22;2832;50.864;12.186;2023-11-19T04:25:28;9.30;99.90
5621;DHT22;2832;50.864;12.186;2023-11-19T04:27:56;9.30;99.90
5621;DHT22;2832;50.864;12.186;2023-11-19T04:30:26;9.30;99.90
5621;DHT22;2832;50.864;12.186;2023-11-19T04:32:56;9.30;99.90
5621;DHT22;2832;50.864;12.186;2023-11-19T04:35:26;9.30;99.90
5621;DHT22;2832;50.864;12.186;2023-11-19T04:38:08;9.30;99.90
5621;DHT22;2832;50.864;12.186;2023-11-19T04:40:52;9.30;99.90
5621;DHT22;2832;50.864;12.186;2023-11-19T04:43:22;9.30;99.90
5621;DHT22;2832;50.864;12.186;2023-11-19T04:45:52;9.30;99.90
5621;DHT22;2832;50.864;12.186;2023-11-19T04:48:22;9.30;99.90
5621;DHT22;2832;50.864;12.186;2023-11-19T04:50:50;9.30;99.90
5621;DHT22;2832;50.864;12.186;2023-11-19T04:53:19;9.20;99.90
5621;DHT22;2832;50.864;12.186;2023-11-19T04:55:48;9.30;99.90
5621;DHT22;2832;50.864;12.186;2023-11-19T04:58:17;9.30;99.90
5621;DHT22;2832;50.864;12.186;2023-11-19T05:00:45;9.30;99.90
5621;DHT22;2832;50.864;12.186;2023-11-19T05:03:17;9.30;99.90
5621;DHT22;2832;50.864;12.186;2023-11-19T05:05:46;9.30;99.90
5621;DHT22;2832;50.864;12.186;2023-11-19T05:08:16;9.30;99.90
5621;DHT22;2832;50.864;12.186;2023-11-19T05:10:48;9.30;99.90
5621;DHT22;2832;50.864;12.186;2023-11-19T05:13:18;9.30;99.90
5621;DHT22;2832;50.864;12.186;2023-11-19T05:15:46;9.30;99.90
5621;DHT22;2832;50.864;12.186;2023-11-19T05:18:13;9.30;99.90
5621;DHT22;2832;50.864;12.186;2023-11-19T05:20:41;9.20;99.90
5621;DHT22;2832;50.864;12.186;2023-11-19T05:23:09;9.20;99.90
5621;DHT22;2832;50.864;12.186;2023-11-19T05:25:45;9.20;99.90
5621;DHT22;2832;50.864;12.186;2023-11-19T05:28:19;9.20;99.90
5621;DHT22;2832;50.864;12.186;2023-11-19T05:30:47;9.20;99.90
5621;DHT22;2832;50.864;12.186;2023-11-19T05:33:15;9.20;99.90
5621;DHT22;2832;50.864;12.186;2023-11-19T05:35:43;9.30;99.90
5621;DHT22;2832;50.864;12.186;2023-11-19T05:38:11;9.30;99.90
5621;DHT22;2832;50.864;12.186;2023-11-19T05:40:39;9.20;99.90
5621;DHT22;2832;50.864;12.186;2023-11-19T05:43:07;9.20;99.90
5621;DHT22;2832;50.864;12.186;2023-11-19T05:45:36;9.20;99.90
5621;DHT22;2832;50.864;12.186;2023-11-19T05:48:04;9.20;99.90
5621;DHT22;2832;50.864;12.186;2023-11-19T05:50:32;9.20;99.90
5621;DHT22;2832;50.864;12.186;2023-11-19T05:53:00;9.20;99.90
5621;DHT22;2832;50.864;12.186;2023-11-19T05:55:28;9.30;99.90
5621;DHT22;2832;50.864;12.186;2023-11-19T05:57:56;9.20;99.90
5621;DHT22;2832;50.864;12.186;2023-11-19T06:00:23;9.20;99.90
5621;DHT22;2832;50.864;12.186;2023-11-19T06:02:54;9.20;99.90
5621;DHT22;2832;50.864;12.186;2023-11-19T06:05:22;9.20;99.90
5621;DHT22;2832;50.864;12.186;2023-11-19T06:07:50;9.30;99.90
5621;DHT22;2832;50.864;12.186;2023-11-19T06:10:17;9.20;99.90
5621;DHT22;2832;50.864;12.186;2023-11-19T06:12:46;9.30;99.90
5621;DHT22;2832;50.864;12.186;2023-11-19T06:15:14;9.30;99.90
5621;DHT22;2832;50.864;12.186;2023-11-19T06:17:42;9.20;99.90
5621;DHT22;2832;50.864;12.186;2023-11-19T06:20:11;9.30;99.90
5621;DHT22;2832;50.864;12.186;2023-11-19T06:22:40;9.20;99.90
5621;DHT22;2832;50.864;12.186;2023-11-19T06:25:10;9.20;99.90
5621;DHT22;2832;50.864;12.186;2023-11-19T06:27:42;9.20;99.90
5621;DHT22;2832;50.864;12.186;2023-11-19T06:30:14;9.20;99.90
5621;DHT22;2832;50.864;12.186;2023-11-19T06:32:42;9.30;99.90
5621;DHT22;2832;50.864;12.186;2023-11-19T06:35:11;9.30;99.90
5621;DHT22;2832;50.864;12.186;2023-11-19T06:37:40;9.20;99.90
5621;DHT22;2832;50.864;12.186;2023-11-19T06:40:11;9.30;99.90
5621;DHT22;2832;50.864;12.186;2023-11-19T06:42:39;9.30;99.90
5621;DHT22;2832;50.864;12.186;2023-11-19T06:45:12;9.30;99.90
5621;DHT22;2832;50.864;12.186;2023-11-19T06:47:40;9.20;99.90
5621;DHT22;2832;50.864;12.186;2023-11-19T06:50:08;9.20;99.90
5621;DHT22;2832;50.864;12.186;2023-11-19T06:52:38;9.20;99.90
5621;DHT22;2832;50.864;12.186;2023-11-19T06:55:07;9.20;99.90
5621;DHT22;2832;50.864;12.186;2023-11-19T06:57:35;9.20;99.90
5621;DHT22;2832;50.864;12.186;2023-11-19T07:00:05;9.20;99.90
5621;DHT22;2832;50.864;12.186;2023-11-19T07:02:40;9.20;99.90
5621;DHT22;2832;50.864;12.186;2023-11-19T07:05:08;9.30;99.90
5621;DHT22;2832;50.864;12.186;2023-11-19T07:07:37;9.30;99.90
5621;DHT22;2832;50.864;12.186;2023-11-19T07:10:08;9.20;99.90
5621;DHT22;2832;50.864;12.186;2023-11-19T07:12:41;9.20;99.90
5621;DHT22;2832;50.864;12.186;2023-11-19T07:15:16;9.20;99.90
5621;DHT22;2832;50.864;12.186;2023-11-19T07:17:45;9.20;99.90
5621;DHT22;2832;50.864;12.186;2023-11-19T07:20:14;9.20;99.90
5621;DHT22;2832;50.864;12.186;2023-11-19T07:22:45;9.20;99.90
5621;DHT22;2832;50.864;12.186;2023-11-19T07:25:13;9.30;99.90
5621;DHT22;2832;50.864;12.186;2023-11-19T07:27:41;9.30;99.90
5621;DHT22;2832;50.864;12.186;2023-11-19T07:30:09;9.30;99.90
5621;DHT22;2832;50.864;12.186;2023-11-19T07:32:37;9.30;99.90
5621;DHT22;2832;50.864;12.186;2023-11-19T07:35:06;9.30;99.90
5621;DHT22;2832;50.864;12.186;2023-11-19T07:37:33;9.30;99.90
5621;DHT22;2832;50.864;12.186;2023-11-19T07:40:06;9.30;99.90
5621;DHT22;2832;50.864;12.186;2023-11-19T07:42:33;9.30;99.90
5621;DHT22;2832;50.864;12.186;2023-11-19T07:45:01;9.40;99.90
5621;DHT22;2832;50.864;12.186;2023-11-19T07:47:35;9.40;99.90
5621;DHT22;2832;50.864;12.186;2023-11-19T07:50:05;9.40;99.90
5621;DHT22;2832;50.864;12.186;2023-11-19T07:52:33;9.40;99.90
5621;DHT22;2832;50.864;12.186;2023-11-19T07:55:01;9.50;99.90
5621;DHT22;2832;50.864;12.186;2023-11-19T07:57:29;9.80;99.90
5621;DHT22;2832;50.864;12.186;2023-11-19T07:59:57;9.90;99.90
5621;DHT22;2832;50.864;12.186;2023-11-19T08:05:09;10.20;99.90
5621;DHT22;2832;50.864;12.186;2023-11-19T08:07:45;10.20;99.90
5621;DHT22;2832;50.864;12.186;2023-11-19T08:10:31;10.40;99.90
5621;DHT22;2832;50.864;12.186;2023-11-19T08:13:05;10.50;99.90
5621;DHT22;2832;50.864;12.186;2023-11-19T08:15:35;10.60;99.90
5621;DHT22;2832;50.864;12.186;2023-11-19T08:18:03;10.60;99.90
5621;DHT22;2832;50.864;12.186;2023-11-19T08:20:31;10.70;99.90
5621;DHT22;2832;50.864;12.186;2023-11-19T08:23:07;10.90;99.90
5621;DHT22;2832;50.864;12.186;2023-11-19T08:25:35;11.00;99.90
5621;DHT22;2832;50.864;12.186;2023-11-19T08:28:04;11.10;99.90
5621;DHT22;2832;50.864;12.186;2023-11-19T08:30:33;11.10;99.90
5621;DHT22;2832;50.864;12.186;2023-11-19T08:33:03;11.10;99.90
5621;DHT22;2832;50.864;12.186;2023-11-19T08:35:32;11.20;99.90
5621;DHT22;2832;50.864;12.186;2023-11-19T08:38:02;11.40;99.90
5621;DHT22;2832;50.864;12.186;2023-11-19T08:40:31;11.40;99.90
5621;DHT22;2832;50.864;12.186;2023-11-19T08:43:03;11.40;99.90
5621;DHT22;2832;50.864;12.186;2023-11-19T08:45:31;11.40;99.90
5621;DHT22;2832;50.864;12.186;2023-11-19T08:47:58;11.50;99.90
5621;DHT22;2832;50.864;12.186;2023-11-19T08:50:31;11.50;99.90
5621;DHT22;2832;50.864;12.186;2023-11-19T08:52:59;11.50;99.90
5621;DHT22;2832;50.864;12.186;2023-11-19T08:55:27;11.60;99.90
5621;DHT22;2832;50.864;12.186;2023-11-19T08:57:57;11.60;99.90
5621;DHT22;2832;50.864;12.186;2023-11-19T09:00:30;11.70;99.90
5621;DHT22;2832;50.864;12.186;2023-11-19T09:02:58;11.70;99.90
5621;DHT22;2832;50.864;12.186;2023-11-19T09:05:29;11.80;99.90
5621;DHT22;2832;50.864;12.186;2023-11-19T09:07:58;11.80;99.90
5621;DHT22;2832;50.864;12.186;2023-11-19T09:10:25;11.80;99.90
5621;DHT22;2832;50.864;12.186;2023-11-19T09:12:55;11.90;99.90
5621;DHT22;2832;50.864;12.186;2023-11-19T09:15:24;11.90;99.90
5621;DHT22;2832;50.864;12.186;2023-11-19T09:17:53;11.90;99.90
5621;DHT22;2832;50.864;12.186;2023-11-19T09:20:23;12.00;99.90
5621;DHT22;2832;50.864;12.186;2023-11-19T09:22:53;12.00;99.90
5621;DHT22;2832;50.864;12.186;2023-11-19T09:25:21;12.10;99.90
5621;DHT22;2832;50.864;12.186;2023-11-19T09:27:49;12.10;99.90
5621;DHT22;2832;50.864;12.186;2023-11-19T09:30:17;12.10;99.90
5621;DHT22;2832;50.864;12.186;2023-11-19T09:32:44;12.10;99.90
5621;DHT22;2832;50.864;12.186;2023-11-19T09:35:15;12.20;99.90
5621;DHT22;2832;50.864;12.186;2023-11-19T09:37:47;12.20;99.90
5621;DHT22;2832;50.864;12.186;2023-11-19T09:40:16;12.20;99.90
5621;DHT22;2832;50.864;12.186;2023-11-19T09:42:48;12.20;99.90
5621;DHT22;2832;50.864;12.186;2023-11-19T09:45:17;12.10;99.90
5621;DHT22;2832;50.864;12.186;2023-11-19T09:47:47;12.10;99.90
5621;DHT22;2832;50.864;12.186;2023-11-19T09:50:23;12.10;99.90
5621;DHT22;2832;50.864;12.186;2023-11-19T09:52:54;12.10;99.90
5621;DHT22;2832;50.864;12.186;2023-11-19T09:55:24;12.20;99.90
5621;DHT22;2832;50.864;12.186;2023-11-19T09:57:53;12.30;99.90
5621;DHT22;2832;50.864;12.186;2023-11-19T10:00:22;12.30;99.90
5621;DHT22;2832;50.864;12.186;2023-11-19T10:02:51;12.30;99.90
5621;DHT22;2832;50.864;12.186;2023-11-19T10:05:24;12.30;99.90
5621;DHT22;2832;50.864;12.186;2023-11-19T10:08:02;12.30;99.90
5621;DHT22;2832;50.864;12.186;2023-11-19T10:10:31;12.40;99.90
5621;DHT22;2832;50.864;12.186;2023-11-19T10:12:59;12.40;99.90
5621;DHT22;2832;50.864;12.186;2023-11-19T10:15:27;12.50;99.90
5621;DHT22;2832;50.864;12.186;2023-11-19T10:17:56;12.50;99.90
5621;DHT22;2832;50.864;12.186;2023-11-19T10:20:25;12.50;99.90
5621;DHT22;2832;50.864;12.186;2023-11-19T10:22:54;12.50;99.90
5621;DHT22;2832;50.864;12.186;2023-11-19T10:25:23;12.50;99.90
5621;DHT22;2832;50.864;12.186;2023-11-19T10:27:51;12.40;99.90
5621;DHT22;2832;50.864;12.186;2023-11-19T10:30:21;12.40;99.90
5621;DHT22;2832;50.864;12.186;2023-11-19T10:33:03;12.40;99.90
5621;DHT22;2832;50.864;12.186;2023-11-19T10:35:38;12.50;99.90
5621;DHT22;2832;50.864;12.186;2023-11-19T10:38:19;12.50;99.90
5621;DHT22;2832;50.864;12.186;2023-11-19T10:40:49;12.50;99.90
5621;DHT22;2832;50.864;12.186;2023-11-19T10:43:19;12.50;99.90
5621;DHT22;2832;50.864;12.186;2023-11-19T10:45:51;12.50;99.90
5621;DHT22;2832;50.864;12.186;2023-11-19T10:48:19;12.50;99.90
5621;DHT22;2832;50.864;12.186;2023-11-19T10:50:56;12.60;99.90
5621;DHT22;2832;50.864;12.186;2023-11-19T10:53:27;12.60;99.90
5621;DHT22;2832;50.864;12.186;2023-11-19T10:55:59;12.60;99.90
5621;DHT22;2832;50.864;12.186;2023-11-19T10:58:56;12.60;99.90
5621;DHT22;2832;50.864;12.186;2023-11-19T11:01:42;12.70;99.90
5621;DHT22;2832;50.864;12.186;2023-11-19T11:04:14;12.70;99.90
5621;DHT22;2832;50.864;12.186;2023-11-19T11:06:48;12.80;99.90
5621;DHT22;2832;50.864;12.186;2023-11-19T11:09:16;12.80;99.90
5621;DHT22;2832;50.864;12.186;2023-11-19T11:11:47;12.90;99.90
5621;DHT22;2832;50.864;12.186;2023-11-19T11:14:16;12.90;99.90
5621;DHT22;2832;50.864;12.186;2023-11-19T11:16:46;12.90;99.90
5621;DHT22;2832;50.864;12.186;2023-11-19T11:19:16;12.90;99.90
5621;DHT22;2832;50.864;12.186;2023-11-19T11:21:53;12.90;99.90
5621;DHT22;2832;50.864;12.186;2023-11-19T11:25:01;12.90;99.90
5621;DHT22;2832;50.864;12.186;2023-11-19T11:28:01;13.00;99.90
5621;DHT22;2832;50.864;12.186;2023-11-19T11:30:43;13.10;99.90
5621;DHT22;2832;50.864;12.186;2023-11-19T11:33:26;13.10;99.90
5621;DHT22;2832;50.864;12.186;2023-11-19T11:36:05;13.00;99.90
5621;DHT22;2832;50.864;12.186;2023-11-19T11:38:40;13.10;99.90
5621;DHT22;2832;50.864;12.186;2023-11-19T11:41:15;13.00;99.90
5621;DHT22;2832;50.864;12.186;2023-11-19T11:43:47;13.00;99.90
5621;DHT22;2832;50.864;12.186;2023-11-19T11:49:27;13.00;99.90
5621;DHT22;2832;50.864;12.186;2023-11-19T11:52:03;13.00;99.90
5621;DHT22;2832;50.864;12.186;2023-11-19T11:54:37;12.90;99.90
5621;DHT22;2832;50.864;12.186;2023-11-19T11:57:11;13.00;99.90
5621;DHT22;2832;50.864;12.186;2023-11-19T11:59:46;13.00;99.90
5621;DHT22;2832;50.864;12.186;2023-11-19T12:02:22;13.00;99.90
5621;DHT22;2832;50.864;12.186;2023-11-19T12:05:08;13.10;99.90
5621;DHT22;2832;50.864;12.186;2023-11-19T12:07:38;13.10;99.90
5621;DHT22;2832;50.864;12.186;2023-11-19T12:10:46;13.00;99.90
5621;DHT22;2832;50.864;12.186;2023-11-19T12:13:16;12.80;99.90
5621;DHT22;2832;50.864;12.186;2023-11-19T12:16:09;12.70;99.90
5621;DHT22;2832;50.864;12.186;2023-11-19T12:18:39;12.50;99.90
5621;DHT22;2832;50.864;12.186;2023-11-19T12:21:45;12.40;99.90
5621;DHT22;2832;50.864;12.186;2023-11-19T12:24:13;12.30;99.90
5621;DHT22;2832;50.864;12.186;2023-11-19T12:26:42;12.20;99.90
5621;DHT22;2832;50.864;12.186;2023-11-19T12:29:13;12.10;99.90
5621;DHT22;2832;50.864;12.186;2023-11-19T12:31:44;12.10;99.90
5621;DHT22;2832;50.864;12.186;2023-11-19T12:34:12;12.10;99.90
5621;DHT22;2832;50.864;12.186;2023-11-19T12:36:41;12.00;99.90
5621;DHT22;2832;50.864;12.186;2023-11-19T12:39:09;12.00;99.90
5621;DHT22;2832;50.864;12.186;2023-11-19T12:41:54;11.90;99.90
5621;DHT22;2832;50.864;12.186;2023-11-19T12:44:30;11.90;99.90
5621;DHT22;2832;50.864;12.186;2023-11-19T12:47:02;11.90;99.90
5621;DHT22;2832;50.864;12.186;2023-11-19T12:49:56;11.90;99.90
5621;DHT22;2832;50.864;12.186;2023-11-19T12:52:23;11.90;99.90
5621;DHT22;2832;50.864;12.186;2023-11-19T12:54:51;11.90;99.90
5621;DHT22;2832;50.864;12.186;2023-11-19T12:57:20;11.80;99.90
5621;DHT22;2832;50.864;12.186;2023-11-19T13:00:17;11.90;99.90
5621;DHT22;2832;50.864;12.186;2023-11-19T13:02:49;11.90;99.90
5621;DHT22;2832;50.864;12.186;2023-11-19T13:05:28;11.90;99.90
5621;DHT22;2832;50.864;12.186;2023-11-19T13:08:01;11.80;99.90
5621;DHT22;2832;50.864;12.186;2023-11-19T13:10:29;11.80;99.90
5621;DHT22;2832;50.864;12.186;2023-11-19T13:13:03;11.80;99.90
5621;DHT22;2832;50.864;12.186;2023-11-19T13:15:31;11.90;99.90
5621;DHT22;2832;50.864;12.186;2023-11-19T13:18:01;11.90;99.90
5621;DHT22;2832;50.864;12.186;2023-11-19T13:20:29;11.90;99.90
5621;DHT22;2832;50.864;12.186;2023-11-19T13:23:00;11.80;99.90
5621;DHT22;2832;50.864;12.186;2023-11-19T13:25:33;11.80;99.90
5621;DHT22;2832;50.864;12.186;2023-11-19T13:28:08;11.90;99.90
5621;DHT22;2832;50.864;12.186;2023-11-19T13:30:40;11.90;99.90
5621;DHT22;2832;50.864;12.186;2023-11-19T13:33:08;11.90;99.90
5621;DHT22;2832;50.864;12.186;2023-11-19T13:35:44;12.00;99.90
5621;DHT22;2832;50.864;12.186;2023-11-19T13:38:34;11.90;99.90
5621;DHT22;2832;50.864;12.186;2023-11-19T13:41:06;11.90;99.90
5621;DHT22;2832;50.864;12.186;2023-11-19T13:43:43;11.90;99.90
5621;DHT22;2832;50.864;12.186;2023-11-19T13:46:19;11.90;99.90
5621;DHT22;2832;50.864;12.186;2023-11-19T13:48:47;11.90;99.90
5621;DHT22;2832;50.864;12.186;2023-11-19T13:51:17;11.90;99.90
5621;DHT22;2832;50.864;12.186;2023-11-19T13:53:45;12.00;99.90
5621;DHT22;2832;50.864;12.186;2023-11-19T13:56:16;12.00;99.90
5621;DHT22;2832;50.864;12.186;2023-11-19T13:58:52;12.00;99.90
5621;DHT22;2832;50.864;12.186;2023-11-19T14:01:26;12.00;99.90
5621;DHT22;2832;50.864;12.186;2023-11-19T14:03:55;12.00;99.90
5621;DHT22;2832;50.864;12.186;2023-11-19T14:06:26;12.00;99.90
5621;DHT22;2832;50.864;12.186;2023-11-19T14:08:54;12.00;99.90
5621;DHT22;2832;50.864;12.186;2023-11-19T14:11:30;12.00;99.90
5621;DHT22;2832;50.864;12.186;2023-11-19T14:14:01;11.90;99.90
5621;DHT22;2832;50.864;12.186;2023-11-19T14:16:29;11.90;99.90
5621;DHT22;2832;50.864;12.186;2023-11-19T14:18:59;11.90;99.90
5621;DHT22;2832;50.864;12.186;2023-11-19T14:21:27;11.90;99.90
5621;DHT22;2832;50.864;12.186;2023-11-19T14:23:57;12.00;99.90
5621;DHT22;2832;50.864;12.186;2023-11-19T14:26:29;12.00;99.90
5621;DHT22;2832;50.864;12.186;2023-11-19T14:29:11;12.00;99.90
5621;DHT22;2832;50.864;12.186;2023-11-19T14:31:48;11.90;99.90
5621;DHT22;2832;50.864;12.186;2023-11-19T14:34:15;12.00;99.90
5621;DHT22;2832;50.864;12.186;2023-11-19T14:36:43;11.90;99.90
5621;DHT22;2832;50.864;12.186;2023-11-19T14:39:14;11.90;99.90
5621;DHT22;2832;50.864;12.186;2023-11-19T14:41:42;11.90;99.90
5621;DHT22;2832;50.864;12.186;2023-11-19T14:44:12;11.90;99.90
5621;DHT22;2832;50.864;12.186;2023-11-19T14:46:51;11.90;99.90
5621;DHT22;2832;50.864;12.186;2023-11-19T14:49:27;11.80;99.90
5621;DHT22;2832;50.864;12.186;2023-11-19T14:51:55;11.90;99.90
5621;DHT22;2832;50.864;12.186;2023-11-19T14:54:23;12.00;99.90
5621;DHT22;2832;50.864;12.186;2023-11-19T14:56:54;11.90;99.90
5621;DHT22;2832;50.864;12.186;2023-11-19T14:59:24;11.90;99.90
5621;DHT22;2832;50.864;12.186;2023-11-19T15:01:52;11.90;99.90
5621;DHT22;2832;50.864;12.186;2023-11-19T15:04:21;12.00;99.90
5621;DHT22;2832;50.864;12.186;2023-11-19T15:06:56;12.00;99.90
5621;DHT22;2832;50.864;12.186;2023-11-19T15:09:25;12.00;99.90
5621;DHT22;2832;50.864;12.186;2023-11-19T15:11:55;11.90;99.90
5621;DHT22;2832;50.864;12.186;2023-11-19T15:14:26;12.00;99.90
5621;DHT22;2832;50.864;12.186;2023-11-19T15:16:55;12.00;99.90
5621;DHT22;2832;50.864;12.186;2023-11-19T15:19:26;12.00;99.90
5621;DHT22;2832;50.864;12.186;2023-11-19T15:21:56;11.90;99.90
5621;DHT22;2832;50.864;12.186;2023-11-19T15:24:28;11.90;99.90
5621;DHT22;2832;50.864;12.186;2023-11-19T15:27:14;12.00;99.90
5621;DHT22;2832;50.864;12.186;2023-11-19T15:29:51;12.00;99.90
5621;DHT22;2832;50.864;12.186;2023-11-19T15:32:20;12.00;99.90
5621;DHT22;2832;50.864;12.186;2023-11-19T15:34:48;12.00;99.90
5621;DHT22;2832;50.864;12.186;2023-11-19T15:37:22;12.00;99.90
5621;DHT22;2832;50.864;12.186;2023-11-19T15:40:08;12.00;99.90
5621;DHT22;2832;50.864;12.186;2023-11-19T15:42:41;12.10;99.90
5621;DHT22;2832;50.864;12.186;2023-11-19T15:45:13;11.90;99.90
5621;DHT22;2832;50.864;12.186;2023-11-19T15:47:43;12.00;99.90
5621;DHT22;2832;50.864;12.186;2023-11-19T15:50:13;12.00;99.90
5621;DHT22;2832;50.864;12.186;2023-11-19T15:52:45;12.00;99.90
5621;DHT22;2832;50.864;12.186;2023-11-19T15:55:15;12.00;99.90
5621;DHT22;2832;50.864;12.186;2023-11-19T15:57:49;12.00;99.90
5621;DHT22;2832;50.864;12.186;2023-11-19T16:00:26;12.10;99.90
5621;DHT22;2832;50.864;12.186;2023-11-19T16:02:54;12.00;99.90
5621;DHT22;2832;50.864;12.186;2023-11-19T16:05:22;12.00;99.90
5621;DHT22;2832;50.864;12.186;2023-11-19T16:07:51;12.00;99.90
5621;DHT22;2832;50.864;12.186;2023-11-19T16:10:19;12.10;99.90
5621;DHT22;2832;50.864;12.186;2023-11-19T16:12:47;12.10;99.90
5621;DHT22;2832;50.864;12.186;2023-11-19T16:15:25;12.10;99.90
5621;DHT22;2832;50.864;12.186;2023-11-19T16:17:55;12.20;99.90
5621;DHT22;2832;50.864;12.186;2023-11-19T16:20:26;12.10;99.90
5621;DHT22;2832;50.864;12.186;2023-11-19T16:22:54;12.10;99.90
5621;DHT22;2832;50.864;12.186;2023-11-19T16:25:21;12.10;99.90